createdAt,value
2018-02-09T00:02:17.990Z,-1.35
2018-02-09T00:04:47.731Z,-1.36
2018-02-09T00:07:17.148Z,-1.31
2018-02-09T00:09:46.478Z,-1.33
2018-02-09T00:12:16.083Z,-1.38
2018-02-09T00:14:45.510Z,-1.37
2018-02-09T00:17:14.889Z,-1.35
2018-02-09T00:19:44.873Z,-1.35
2018-02-09T00:22:14.412Z,-1.35
2018-02-09T00:24:43.648Z,-1.33
2018-02-09T00:27:12.954Z,-1.33
2018-02-09T00:29:42.211Z,-1.35
2018-02-09T00:32:11.512Z,-1.38
2018-02-09T00:34:40.781Z,-1.37
2018-02-09T00:37:09.996Z,-1.40
2018-02-09T00:39:40.030Z,-1.37
2018-02-09T00:42:10.085Z,-1.39
2018-02-09T00:44:39.410Z,-1.41
2018-02-09T00:47:08.640Z,-1.41
2018-02-09T00:49:38.899Z,-1.42
2018-02-09T00:52:08.848Z,-1.42
2018-02-09T00:54:38.123Z,-1.46
2018-02-09T00:57:07.345Z,-1.49
2018-02-09T00:59:36.697Z,-1.46
2018-02-09T01:02:05.914Z,-1.51
2018-02-09T01:04:35.278Z,-1.48
2018-02-09T01:07:04.532Z,-1.47
2018-02-09T01:09:33.798Z,-1.45
2018-02-09T01:12:03.047Z,-1.46
2018-02-09T01:14:33.061Z,-1.49
2018-02-09T01:17:02.315Z,-1.46
2018-02-09T01:19:31.548Z,-1.46
2018-02-09T01:22:00.833Z,-1.44
2018-02-09T01:24:30.108Z,-1.42
2018-02-09T01:26:59.380Z,-1.45
2018-02-09T01:29:28.615Z,-1.45
2018-02-09T01:31:57.868Z,-1.47
2018-02-09T01:34:27.070Z,-1.45
2018-02-09T01:36:57.075Z,-1.46
2018-02-09T01:39:27.083Z,-1.49
2018-02-09T01:41:57.110Z,-1.52
2018-02-09T01:44:26.366Z,-1.53
2018-02-09T01:46:55.597Z,-1.53
2018-02-09T01:49:25.627Z,-1.55
2018-02-09T01:51:54.974Z,-1.59
2018-02-09T01:54:24.246Z,-1.58
2018-02-09T01:56:53.545Z,-1.56
2018-02-09T01:59:23.020Z,-1.56
2018-02-09T02:01:52.854Z,-1.55
2018-02-09T02:04:22.293Z,-1.58
2018-02-09T02:06:51.523Z,-1.59
2018-02-09T02:09:20.821Z,-1.62
2018-02-09T02:11:50.023Z,-1.56
2018-02-09T02:14:19.282Z,-1.59
2018-02-09T02:16:48.516Z,-1.57
2018-02-09T02:19:17.746Z,-1.57
2018-02-09T02:21:46.960Z,-1.62
2018-02-09T02:24:16.858Z,-1.60
2018-02-09T02:26:46.091Z,-1.62
2018-02-09T02:29:15.363Z,-1.67
2018-02-09T02:31:44.618Z,-1.67
2018-02-09T02:34:13.947Z,-1.66
2018-02-09T02:36:43.940Z,-1.70
2018-02-09T02:39:13.979Z,-1.66
2018-02-09T02:41:44.012Z,-1.66
2018-02-09T02:44:13.226Z,-1.63
2018-02-09T02:46:42.455Z,-1.67
2018-02-09T02:49:11.686Z,-1.65
2018-02-09T02:51:40.986Z,-1.65
2018-02-09T02:54:10.224Z,-1.64
2018-02-09T02:56:39.443Z,-1.70
2018-02-09T02:59:08.798Z,-1.69
2018-02-09T03:01:37.997Z,-1.72
2018-02-09T03:04:07.219Z,-1.77
2018-02-09T03:06:36.505Z,-1.78
2018-02-09T03:09:05.834Z,-1.76
2018-02-09T03:11:35.069Z,-1.73
2018-02-09T03:14:04.304Z,-1.74
2018-02-09T03:16:33.530Z,-1.76
2018-02-09T03:19:03.572Z,-1.77
2018-02-09T03:21:32.851Z,-1.75
2018-02-09T03:24:02.107Z,-1.80
2018-02-09T03:26:31.318Z,-1.83
2018-02-09T03:29:01.355Z,-1.86
2018-02-09T03:31:30.648Z,-1.86
2018-02-09T03:33:59.876Z,-1.83
2018-02-09T03:36:29.908Z,-1.89
2018-02-09T03:38:59.160Z,-1.92
2018-02-09T03:41:28.543Z,-1.92
2018-02-09T03:43:57.840Z,-1.88
2018-02-09T03:46:27.070Z,-1.90
2018-02-09T03:48:57.079Z,-1.91
2018-02-09T03:51:26.413Z,-1.89
2018-02-09T03:53:56.657Z,-1.97
2018-02-09T03:56:25.874Z,-1.96
2018-02-09T03:58:55.114Z,-1.92
2018-02-09T04:01:24.362Z,-1.95
2018-02-09T04:03:53.574Z,-1.95
2018-02-09T04:06:22.832Z,-1.99
2018-02-09T04:08:52.882Z,-1.97
2018-02-09T04:11:22.136Z,-1.95
2018-02-09T04:13:51.357Z,-1.96
2018-02-09T04:16:20.626Z,-1.98
2018-02-09T04:18:49.835Z,-1.98
2018-02-09T04:21:19.858Z,-1.99
2018-02-09T04:23:49.080Z,-1.98
2018-02-09T04:26:18.483Z,-1.98
2018-02-09T04:28:47.874Z,-1.96
2018-02-09T04:31:17.138Z,-1.97
2018-02-09T04:33:46.362Z,-1.98
2018-02-09T04:36:15.603Z,-2.00
2018-02-09T04:38:44.808Z,-1.94
2018-02-09T04:41:14.233Z,-1.98
2018-02-09T04:43:43.605Z,-2.04
2018-02-09T04:46:13.041Z,-2.00
2018-02-09T04:48:42.409Z,-1.96
2018-02-09T04:51:11.598Z,-1.99
2018-02-09T04:53:40.846Z,-2.01
2018-02-09T04:56:11.039Z,-2.00
2018-02-09T04:58:40.369Z,-1.99
2018-02-09T05:01:10.510Z,-1.98
2018-02-09T05:03:39.751Z,-1.98
2018-02-09T05:06:08.981Z,-1.99
2018-02-09T05:08:39.012Z,-2.03
2018-02-09T05:11:09.083Z,-2.04
2018-02-09T05:13:38.362Z,-2.01
2018-02-09T05:16:07.621Z,-2.00
2018-02-09T05:18:37.791Z,-1.97
2018-02-09T05:21:07.048Z,-1.98
2018-02-09T05:23:36.402Z,-1.99
2018-02-09T05:26:05.648Z,-2.00
2018-02-09T05:28:35.620Z,-1.98
2018-02-09T05:31:04.950Z,-2.01
2018-02-09T05:33:34.178Z,-1.99
2018-02-09T05:36:03.431Z,-2.00
2018-02-09T05:38:32.688Z,-2.02
2018-02-09T05:41:02.077Z,-2.01
2018-02-09T05:43:31.299Z,-2.03
2018-02-09T05:46:00.579Z,-2.05
2018-02-09T05:48:29.837Z,-2.02
2018-02-09T05:50:59.053Z,-2.01
2018-02-09T05:53:29.034Z,-1.99
2018-02-09T05:55:58.870Z,-2.03
2018-02-09T05:58:28.131Z,-2.04
2018-02-09T06:00:57.360Z,-2.02
2018-02-09T06:03:27.358Z,-1.99
2018-02-09T06:05:56.562Z,-2.02
2018-02-09T06:08:25.817Z,-2.05
2018-02-09T06:10:55.864Z,-2.03
2018-02-09T06:13:25.855Z,-2.02
2018-02-09T06:15:55.131Z,-2.05
2018-02-09T06:18:25.139Z,-2.10
2018-02-09T06:20:54.480Z,-2.13
2018-02-09T06:23:23.728Z,-2.11
2018-02-09T06:25:53.780Z,-2.12
2018-02-09T06:28:23.014Z,-2.20
2018-02-09T06:30:52.295Z,-2.20
2018-02-09T06:33:21.510Z,-2.20
2018-02-09T06:35:50.853Z,-2.17
2018-02-09T06:38:20.291Z,-2.18
2018-02-09T06:40:49.543Z,-2.18
2018-02-09T06:43:19.217Z,-2.25
2018-02-09T06:45:48.519Z,-2.18
2018-02-09T06:48:17.792Z,-2.16
2018-02-09T06:50:47.062Z,-2.18
2018-02-09T06:53:18.023Z,-2.17
2018-02-09T06:55:48.022Z,-2.17
2018-02-09T06:58:17.245Z,-2.16
2018-02-09T07:00:46.458Z,-2.16
2018-02-09T07:03:15.670Z,-2.17
2018-02-09T07:05:44.931Z,-2.15
2018-02-09T07:08:14.208Z,-2.08
2018-02-09T07:10:43.438Z,-2.06
2018-02-09T07:13:12.706Z,-2.09
2018-02-09T07:15:41.938Z,-2.14
2018-02-09T07:18:11.202Z,-2.16
2018-02-09T07:20:41.343Z,-2.09
2018-02-09T07:23:10.590Z,-2.01
2018-02-09T07:25:39.821Z,-1.99
2018-02-09T07:28:09.060Z,-2.02
2018-02-09T07:30:38.432Z,-2.00
2018-02-09T07:33:07.670Z,-1.94
2018-02-09T07:35:36.881Z,-1.93
2018-02-09T07:38:06.128Z,-1.89
2018-02-09T07:40:35.357Z,-1.90
2018-02-09T07:43:04.748Z,-1.94
2018-02-09T07:45:34.032Z,-1.85
2018-02-09T07:48:03.303Z,-1.75
2018-02-09T07:50:32.851Z,-1.76
2018-02-09T07:53:02.125Z,-1.71
2018-02-09T07:55:31.380Z,-1.69
2018-02-09T07:58:00.699Z,-1.56
2018-02-09T08:00:30.086Z,-1.48
2018-02-09T08:02:59.361Z,-1.42
2018-02-09T08:05:28.602Z,-1.40
2018-02-09T08:07:58.595Z,-1.36
2018-02-09T08:10:27.906Z,-1.23
2018-02-09T08:12:57.152Z,-1.14
2018-02-09T08:15:26.386Z,-1.09
2018-02-09T08:17:56.410Z,-1.02
2018-02-09T08:20:25.678Z,-0.94
2018-02-09T08:22:54.899Z,-0.84
2018-02-09T08:25:24.133Z,-0.77
2018-02-09T08:27:53.390Z,-0.67
2018-02-09T08:30:22.651Z,-0.61
2018-02-09T08:32:52.080Z,-0.62
2018-02-09T08:35:21.299Z,-0.55
2018-02-09T08:37:51.330Z,-0.51
2018-02-09T08:40:21.327Z,-0.48
2018-02-09T08:42:51.368Z,-0.48
2018-02-09T08:45:20.618Z,-0.49
2018-02-09T08:47:49.873Z,-0.49
2018-02-09T08:50:19.168Z,-0.45
2018-02-09T08:52:49.401Z,-0.37
2018-02-09T08:55:18.678Z,-0.35
2018-02-09T08:57:47.969Z,-0.33
2018-02-09T09:00:17.960Z,-0.31
2018-02-09T09:02:47.211Z,-0.24
2018-02-09T09:05:16.470Z,-0.18
2018-02-09T09:07:45.722Z,-0.13
2018-02-09T09:10:14.991Z,-0.03
2018-02-09T09:12:44.227Z,0.12
2018-02-09T09:15:13.454Z,0.25
2018-02-09T09:17:42.910Z,0.39
2018-02-09T09:20:12.388Z,0.57
2018-02-09T09:22:41.588Z,0.73
2018-02-09T09:25:11.610Z,0.90
2018-02-09T09:27:41.082Z,1.02
2018-02-09T09:30:10.353Z,1.21
2018-02-09T09:32:39.547Z,1.21
2018-02-09T09:35:09.042Z,1.25
2018-02-09T09:37:38.259Z,1.29
2018-02-09T09:40:07.507Z,1.33
2018-02-09T09:42:37.502Z,1.36
2018-02-09T09:45:07.540Z,1.42
2018-02-09T09:47:36.856Z,1.46
2018-02-09T09:50:06.094Z,1.51
2018-02-09T09:52:35.434Z,1.53
2018-02-09T09:55:04.667Z,1.60
2018-02-09T09:57:33.899Z,1.64
2018-02-09T10:00:03.106Z,1.70
2018-02-09T10:02:39.841Z,1.70
2018-02-09T10:05:09.101Z,1.68
2018-02-09T10:07:39.125Z,1.71
2018-02-09T10:10:08.471Z,1.73
2018-02-09T10:12:37.706Z,1.74
2018-02-09T10:15:07.799Z,1.83
2018-02-09T10:17:37.218Z,1.92
2018-02-09T10:20:07.212Z,1.93
2018-02-09T10:22:36.444Z,1.99
2018-02-09T10:25:06.425Z,2.07
2018-02-09T10:27:35.654Z,2.12
2018-02-09T10:30:05.626Z,2.24
2018-02-09T10:32:34.855Z,2.27
2018-02-09T10:35:05.567Z,2.36
2018-02-09T10:37:34.998Z,2.28
2018-02-09T10:40:05.102Z,2.28
2018-02-09T10:42:34.363Z,2.33
2018-02-09T10:45:03.590Z,2.41
2018-02-09T10:47:32.821Z,2.38
2018-02-09T10:50:03.032Z,2.28
2018-02-09T10:52:32.286Z,2.15
2018-02-09T10:55:01.499Z,2.03
2018-02-09T10:57:30.706Z,1.90
2018-02-09T10:59:59.938Z,1.85
2018-02-09T11:02:29.929Z,1.89
2018-02-09T11:04:59.230Z,1.95
2018-02-09T11:07:28.472Z,1.99
2018-02-09T11:09:57.720Z,2.03
2018-02-09T11:12:27.010Z,2.07
2018-02-09T11:14:57.050Z,2.12
2018-02-09T11:17:26.280Z,2.17
2018-02-09T11:19:55.515Z,2.18
2018-02-09T11:22:24.746Z,2.23
2018-02-09T11:24:53.944Z,2.27
2018-02-09T11:27:23.959Z,2.28
2018-02-09T11:29:53.268Z,2.34
2018-02-09T11:32:22.509Z,2.35
2018-02-09T11:34:51.744Z,2.38
2018-02-09T11:37:21.017Z,2.34
2018-02-09T11:39:50.277Z,2.26
2018-02-09T11:42:19.550Z,2.23
2018-02-09T11:44:48.858Z,2.24
2018-02-09T11:47:18.850Z,2.25
2018-02-09T11:49:49.063Z,2.23
2018-02-09T11:52:18.301Z,2.28
2018-02-09T11:54:48.318Z,2.35
2018-02-09T11:57:17.635Z,2.39
2018-02-09T11:59:46.859Z,2.45
2018-02-09T12:02:16.069Z,2.45
2018-02-09T12:04:45.329Z,2.48
2018-02-09T12:07:14.583Z,2.54
2018-02-09T12:09:43.863Z,2.59
2018-02-09T12:12:13.411Z,2.55
2018-02-09T12:14:42.555Z,2.55
2018-02-09T12:17:11.784Z,2.57
2018-02-09T12:19:41.794Z,2.65
2018-02-09T12:22:11.000Z,2.56
2018-02-09T12:24:41.030Z,2.52
2018-02-09T12:27:11.013Z,2.57
2018-02-09T12:29:40.343Z,2.54
2018-02-09T12:32:10.320Z,2.60
2018-02-09T12:34:39.565Z,2.71
2018-02-09T12:37:09.552Z,2.88
2018-02-09T12:39:38.887Z,2.93
2018-02-09T12:42:08.062Z,2.92
2018-02-09T12:44:37.318Z,2.93
2018-02-09T12:47:06.576Z,2.91
2018-02-09T12:49:36.570Z,2.89
2018-02-09T12:52:05.793Z,2.85
2018-02-09T12:54:35.810Z,2.84
2018-02-09T12:57:05.827Z,2.77
2018-02-09T12:59:35.167Z,2.80
2018-02-09T13:02:04.397Z,2.75
2018-02-09T13:04:33.581Z,2.67
2018-02-09T13:07:02.840Z,2.56
2018-02-09T13:09:32.058Z,2.53
2018-02-09T13:12:01.273Z,2.58
2018-02-09T13:14:54.119Z,2.60
2018-02-09T13:17:23.293Z,2.56
2018-02-09T13:19:52.526Z,2.47
2018-02-09T13:22:39.603Z,2.44
2018-02-09T13:25:08.800Z,2.40
2018-02-09T13:27:38.059Z,2.38
2018-02-09T13:30:07.249Z,2.41
2018-02-09T13:32:54.244Z,2.31
2018-02-09T13:35:23.502Z,2.26
2018-02-09T13:37:52.765Z,2.22
2018-02-09T13:40:22.013Z,2.22
2018-02-09T13:42:51.994Z,2.21
2018-02-09T13:45:23.008Z,2.27
2018-02-09T13:47:53.783Z,2.36
2018-02-09T13:50:23.026Z,2.41
2018-02-09T13:52:52.266Z,2.46
2018-02-09T13:55:22.255Z,2.50
2018-02-09T13:57:51.478Z,2.47
2018-02-09T14:00:20.734Z,2.43
2018-02-09T14:02:49.988Z,2.40
2018-02-09T14:05:20.149Z,2.42
2018-02-09T14:07:49.346Z,2.39
2018-02-09T14:10:18.731Z,2.29
2018-02-09T14:12:47.957Z,2.23
2018-02-09T14:15:17.198Z,2.21
2018-02-09T14:17:46.409Z,2.25
2018-02-09T14:20:15.634Z,2.26
2018-02-09T14:22:44.870Z,2.22
2018-02-09T14:25:14.956Z,2.22
2018-02-09T14:27:44.220Z,2.18
2018-02-09T14:30:13.442Z,2.16
2018-02-09T14:32:42.706Z,2.16
2018-02-09T14:35:11.942Z,2.17
2018-02-09T14:37:41.218Z,2.14
2018-02-09T14:40:10.429Z,2.12
2018-02-09T14:42:39.674Z,2.17
2018-02-09T14:45:08.944Z,2.22
2018-02-09T14:47:38.197Z,2.17
2018-02-09T14:50:08.230Z,2.12
2018-02-09T14:52:37.466Z,2.13
2018-02-09T14:55:06.712Z,2.15
2018-02-09T14:57:35.946Z,2.25
2018-02-09T15:00:05.129Z,2.31
2018-02-09T15:02:34.353Z,2.37
2018-02-09T15:05:03.856Z,2.39
2018-02-09T15:07:33.140Z,2.40
2018-02-09T15:10:02.363Z,2.31
2018-02-09T15:12:31.645Z,2.32
2018-02-09T15:15:00.886Z,2.31
2018-02-09T15:17:31.022Z,2.29
2018-02-09T15:20:00.350Z,2.25
2018-02-09T15:22:29.779Z,2.29
2018-02-09T15:24:59.191Z,2.26
2018-02-09T15:27:28.419Z,2.18
2018-02-09T15:29:57.646Z,2.06
2018-02-09T15:32:27.005Z,2.11
2018-02-09T15:34:56.220Z,2.10
2018-02-09T15:37:25.475Z,2.10
2018-02-09T15:39:55.636Z,2.09
2018-02-09T15:42:24.981Z,2.13
2018-02-09T15:44:54.251Z,2.08
2018-02-09T15:47:23.463Z,2.06
2018-02-09T15:49:52.762Z,2.03
2018-02-09T15:52:22.062Z,2.01
2018-02-09T15:54:51.366Z,2.04
2018-02-09T15:57:22.466Z,2.04
2018-02-09T15:59:52.454Z,2.07
2018-02-09T16:02:21.701Z,2.06
2018-02-09T16:04:50.924Z,2.02
2018-02-09T16:07:20.136Z,1.95
2018-02-09T16:09:49.371Z,1.91
2018-02-09T16:12:19.409Z,1.93
2018-02-09T16:14:48.629Z,1.93
2018-02-09T16:17:17.994Z,1.85
2018-02-09T16:19:47.230Z,1.87
2018-02-09T16:22:16.499Z,1.84
2018-02-09T16:24:45.726Z,1.78
2018-02-09T16:27:14.965Z,1.73
2018-02-09T16:29:44.169Z,1.67
2018-02-09T16:32:13.466Z,1.59
2018-02-09T16:34:43.485Z,1.56
2018-02-09T16:37:13.527Z,1.55
2018-02-09T16:39:42.738Z,1.55
2018-02-09T16:42:12.920Z,1.52
2018-02-09T16:44:42.972Z,1.53
2018-02-09T16:47:12.219Z,1.47
2018-02-09T16:49:42.233Z,1.44
2018-02-09T16:52:11.495Z,1.38
2018-02-09T16:54:40.758Z,1.30
2018-02-09T16:57:10.021Z,1.28
2018-02-09T16:59:39.234Z,1.28
2018-02-09T17:02:08.474Z,1.21
2018-02-09T17:04:37.747Z,1.23
2018-02-09T17:07:07.784Z,1.21
2018-02-09T17:09:37.014Z,1.20
2018-02-09T17:12:06.306Z,1.20
2018-02-09T17:14:35.530Z,1.23
2018-02-09T17:17:04.947Z,1.19
2018-02-09T17:19:34.981Z,1.19
2018-02-09T17:22:04.234Z,1.16
2018-02-09T17:24:33.471Z,1.12
2018-02-09T17:27:02.736Z,1.09
2018-02-09T17:29:32.018Z,1.07
2018-02-09T17:32:01.423Z,1.08
2018-02-09T17:34:30.637Z,1.07
2018-02-09T17:37:01.247Z,1.06
2018-02-09T17:39:30.498Z,1.08
2018-02-09T17:42:00.509Z,1.00
2018-02-09T17:44:30.491Z,1.02
2018-02-09T17:46:59.789Z,1.05
2018-02-09T17:49:29.078Z,1.05
2018-02-09T17:51:59.095Z,1.06
2018-02-09T17:54:28.346Z,1.12
2018-02-09T17:56:58.348Z,1.10
2018-02-09T17:59:28.414Z,1.12
2018-02-09T18:01:57.679Z,1.16
2018-02-09T18:04:27.723Z,1.15
2018-02-09T18:06:56.968Z,1.13
2018-02-09T18:09:26.277Z,1.15
2018-02-09T18:11:55.476Z,1.08
2018-02-09T18:14:24.709Z,1.12
2018-02-09T18:16:53.929Z,1.11
2018-02-09T18:19:23.155Z,1.12
2018-02-09T18:21:52.393Z,1.11
2018-02-09T18:24:21.730Z,1.14
2018-02-09T18:26:51.794Z,1.09
2018-02-09T18:29:21.036Z,1.16
2018-02-09T18:31:50.301Z,1.14
2018-02-09T18:34:19.517Z,1.14
2018-02-09T18:36:48.791Z,1.17
2018-02-09T18:39:18.779Z,1.17
2018-02-09T18:41:47.995Z,1.21
2018-02-09T18:44:17.982Z,1.17
2018-02-09T18:46:47.207Z,1.17
2018-02-09T18:49:16.435Z,1.21
2018-02-09T18:51:46.474Z,1.19
2018-02-09T18:54:15.803Z,1.19
2018-02-09T18:56:45.070Z,1.19
2018-02-09T18:59:14.313Z,1.17
2018-02-09T19:01:43.541Z,1.11
2018-02-09T19:04:12.830Z,1.13
2018-02-09T19:06:42.810Z,1.14
2018-02-09T19:09:12.113Z,1.18
2018-02-09T19:11:41.308Z,1.23
2018-02-09T19:14:10.570Z,1.26
2018-02-09T19:16:39.814Z,1.24
2018-02-09T19:19:09.066Z,1.26
2018-02-09T19:21:38.315Z,1.22
2018-02-09T19:24:08.327Z,1.22
2018-02-09T19:26:38.371Z,1.31
2018-02-09T19:29:08.364Z,1.32
2018-02-09T19:31:38.365Z,1.41
2018-02-09T19:34:09.092Z,1.44
2018-02-09T19:36:38.369Z,1.44
2018-02-09T19:39:07.630Z,1.53
2018-02-09T19:41:37.836Z,1.54
2018-02-09T19:44:07.088Z,1.57
2018-02-09T19:46:36.383Z,1.58
2018-02-09T19:49:05.610Z,1.58
2018-02-09T19:51:36.357Z,1.62
2018-02-09T19:54:05.603Z,1.59
2018-02-09T19:56:35.041Z,1.58
2018-02-09T19:59:04.260Z,1.60
2018-02-09T20:01:34.260Z,1.55
2018-02-09T20:04:03.677Z,1.59
2018-02-09T20:06:33.039Z,1.65
2018-02-09T20:09:02.342Z,1.67
2018-02-09T20:11:31.552Z,1.64
2018-02-09T20:14:00.835Z,1.73
2018-02-09T20:16:30.051Z,1.67
2018-02-09T20:18:59.302Z,1.71
2018-02-09T20:21:32.212Z,1.71
2018-02-09T20:24:02.360Z,1.71
2018-02-09T20:26:31.634Z,1.75
2018-02-09T20:29:00.887Z,1.76
2018-02-09T20:31:30.898Z,1.76
2018-02-09T20:34:00.931Z,1.83
2018-02-09T20:36:30.363Z,1.88
2018-02-09T20:39:00.329Z,1.93
2018-02-09T20:41:29.755Z,1.95
2018-02-09T20:43:58.991Z,1.93
2018-02-09T20:46:28.290Z,1.93
2018-02-09T20:48:57.518Z,1.99
2018-02-09T20:51:26.796Z,2.00
2018-02-09T20:53:56.061Z,1.99
2018-02-09T20:56:25.389Z,2.02
2018-02-09T20:58:54.637Z,2.00
2018-02-09T21:01:23.940Z,2.06
2018-02-09T21:03:53.206Z,2.01
2018-02-09T21:06:22.459Z,2.08
2018-02-09T21:08:52.465Z,2.17
2018-02-09T21:11:22.458Z,2.25
2018-02-09T21:13:52.536Z,2.26
2018-02-09T21:16:22.719Z,2.30
2018-02-09T21:18:53.021Z,2.31
2018-02-09T21:21:23.031Z,2.32
2018-02-09T21:23:52.304Z,2.33
2018-02-09T21:26:21.555Z,2.42
2018-02-09T21:28:50.787Z,2.42
2018-02-09T21:31:20.055Z,2.38
2018-02-09T21:33:49.348Z,2.32
2018-02-09T21:36:18.570Z,2.32
2018-02-09T21:38:47.807Z,2.28
2018-02-09T21:41:18.559Z,2.28
2018-02-09T21:43:48.521Z,2.26
2018-02-09T21:46:17.746Z,2.24
2018-02-09T21:48:46.994Z,2.26
2018-02-09T21:51:16.217Z,2.29
2018-02-09T21:53:46.286Z,2.27
2018-02-09T21:56:16.281Z,2.20
2018-02-09T21:58:45.495Z,2.24
2018-02-09T22:01:15.489Z,2.23
2018-02-09T22:03:46.220Z,2.23
2018-02-09T22:06:15.467Z,2.22
2018-02-09T22:08:44.752Z,2.22
2018-02-09T22:11:14.774Z,2.22
2018-02-09T22:13:43.999Z,2.20
2018-02-09T22:16:13.428Z,2.19
2018-02-09T22:18:42.935Z,2.23
2018-02-09T22:21:12.277Z,2.22
2018-02-09T22:23:42.390Z,2.19
2018-02-09T22:26:12.406Z,2.22
2018-02-09T22:28:42.586Z,2.21
2018-02-09T22:31:11.825Z,2.21
2018-02-09T22:33:41.043Z,2.23
2018-02-09T22:36:10.329Z,2.28
2018-02-09T22:38:40.298Z,2.26
2018-02-09T22:41:09.538Z,2.22
2018-02-09T22:43:38.832Z,2.19
2018-02-09T22:46:08.190Z,2.23
2018-02-09T22:48:37.454Z,2.25
2018-02-09T22:51:06.709Z,2.24
2018-02-09T22:53:35.957Z,2.23
2018-02-09T22:56:06.061Z,2.20
2018-02-09T22:58:35.281Z,2.20
2018-02-09T23:01:04.623Z,2.14
2018-02-09T23:03:33.871Z,2.14
2018-02-09T23:06:03.099Z,2.16
2018-02-09T23:08:32.334Z,2.19
2018-02-09T23:11:02.372Z,2.22
2018-02-09T23:13:31.593Z,2.19
2018-02-09T23:16:00.794Z,2.14
2018-02-09T23:18:30.018Z,2.15
2018-02-09T23:21:00.742Z,2.14
2018-02-09T23:23:30.048Z,2.15
2018-02-09T23:25:59.278Z,2.18
2018-02-09T23:28:29.312Z,2.23
2018-02-09T23:30:58.582Z,2.23
2018-02-09T23:33:28.576Z,2.27
2018-02-09T23:35:57.808Z,2.20
2018-02-09T23:38:27.064Z,2.20
2018-02-09T23:40:56.275Z,2.26
2018-02-09T23:43:25.507Z,2.26
2018-02-09T23:45:54.741Z,2.32
2018-02-09T23:48:23.961Z,2.37
2018-02-09T23:50:53.207Z,2.25
2018-02-09T23:53:22.459Z,2.23
2018-02-09T23:55:51.697Z,2.30
2018-02-09T23:58:20.928Z,2.34
